Terminal Aerodrome Forecast
Issued by NWS Sioux Falls, SD

Home | Current Version | Previous Version | Graphics & Text | Print | Product List | Glossary On
Versions: 1 2 3 4 5 6 7 8 9 10 11 12 13 14 15 16 17 18 19 20 21 22 23 24 25 26
000
FTUS43 KFSD 272341
TAFFSD
TAF
KFSD 272341Z 2800/2824 21005KT P6SM SKC
     FM280600 19004KT P6SM SCT100
      TEMPO 2808/2811 BKN070
     FM281300 01008KT P6SM SCT015 BKN050
     FM281600 02008KT P6SM OVC015
      TEMPO 2819/2823 6SM -SHSN=

USA.gov is the U.S. government's official web portal to all federal, state and local government web resources and services.